Current Weather Conditions: station 63106

sailwx.info

Last reported at 2018-Apr-23 10:56 UTC.
Time now 2018-May-22 10:12 UTC

Location: N 61°00' E 001°42'.
View on Google Maps.

See reports from other nearby stations

  
Tides and Currents Weather Stations Pressure Air Temp Water Temp Dewpoint Dewpoint Depression Visibility Wind Speed Wind Dir Waves Ship Positions
date/time (UTC)wind fromknots sea level pressurealtimeterstation pressurevisibilityair tempwater tempwave heightnotes
2018-May-22 09:00 020 20 8.5
2018-May-22 08:00 030 20 8.3
2018-May-22 07:00 020 20 8.1
2018-May-22 06:00 020 20 8.0
2018-May-22 05:00 010 20 7.8
2018-May-22 04:00 010 20 7.6
2018-May-22 03:00 010 21 7.5
2018-May-22 02:00 360 20 7.3
2018-May-22 01:00 360 21 7.2
2018-May-22 00:00 350 20 8.0
2018-May-21 23:00 280 6 9.0
2018-May-21 22:00 250 6 8.7
2018-May-21 21:00 240 7 9.0
2018-May-21 20:00 230 8 9.0
2018-May-21 19:00 220 8 9.0
2018-May-21 18:00 210 9 8.9
2018-May-21 17:00 200 9 8.9
2018-May-21 16:00 200 8 9.0
2018-May-21 15:00 190 9 9.1
2018-May-21 14:00 190 9 9.2
2018-May-21 13:00 200 13 9.0
2018-May-21 12:00 200 14 9.0
2018-May-21 11:00 200 15 9.0
2018-May-21 10:00 200 19 8.9
2018-May-21 09:00 190 18 8.7
2018-May-21 08:00 180 18 8.6
2018-May-21 07:00 180 17 8.7
2018-May-21 06:00 190 18 8.9
2018-May-21 05:00 180 18 9.2
2018-May-21 04:00 190 15 9.3
2018-May-21 03:00 190 19 9.4
2018-May-21 02:00 200 20 9.4
2018-May-21 01:00 200 21 9.5
2018-May-21 00:00 190 22 9.6
2018-May-20 23:00 190 21 9.8
2018-May-20 22:00 190 22 9.8
2018-May-20 21:00 190 22 10.1
2018-May-20 20:00 190 22 10.3
2018-May-20 19:00 190 22 10.3
2018-May-20 18:00 180 22 10.2
2018-May-20 17:00 190 21 10.3
2018-May-20 16:00 180 21 10.3
2018-May-20 15:00
2018-May-20 14:00
2018-May-20 13:00
2018-May-20 12:00
2018-May-20 11:00 190 24 10.7
2018-May-20 10:00 190 25 10.7